Time,TemperatureF,DewpointF,PressureIn,WindDirection,WindDirectionDegrees,WindSpeedMPH,WindSpeedGustMPH,Humidity,HourlyPrecipIn,Conditions,Clouds,dailyrainin,SoftwareType,DateUTC
2013-06-03 00:00:00,76.8,70.2,29.85,North,-999,0.0,0.0,80,0.00,,,-99.99,WeatherLink 5.7,2013-06-03 04:00:00,
2013-06-03 00:15:00,76.6,70.0,29.85,North,-999,0.0,0.0,80,0.00,,,-99.99,WeatherLink 5.7,2013-06-03 04:15:00,
2013-06-03 00:30:00,76.4,70.1,29.85,North,-999,0.0,0.0,81,0.00,,,-99.99,WeatherLink 5.7,2013-06-03 04:30:00,
2013-06-03 00:45:00,76.2,69.9,29.85,North,-999,0.0,0.0,81,0.00,,,-99.99,WeatherLink 5.7,2013-06-03 04:45:00,
2013-06-03 01:00:00,76.1,69.8,29.84,North,-999,0.0,0.0,81,0.00,,,-99.99,WeatherLink 5.7,2013-06-03 05:00:00,
2013-06-03 01:15:00,76.0,70.1,29.83,North,-999,0.0,0.0,82,0.00,,,-99.99,WeatherLink 5.7,2013-06-03 05:15:00,
2013-06-03 01:30:00,75.9,70.0,29.84,North,-999,0.0,0.0,82,0.00,,,-99.99,WeatherLink 5.7,2013-06-03 05:30:00,
2013-06-03 01:45:00,75.6,69.7,29.84,North,-999,0.0,0.0,82,0.00,,,-99.99,WeatherLink 5.7,2013-06-03 05:45:00,
2013-06-03 02:00:00,75.5,70.0,29.84,North,-999,0.0,0.0,83,0.00,,,-99.99,WeatherLink 5.7,2013-06-03 06:00:00,
2013-06-03 02:15:00,75.4,69.9,29.83,North,-999,0.0,0.0,83,0.00,,,-99.99,WeatherLink 5.7,2013-06-03 06:15:00,
2013-06-03 02:30:00,75.2,69.7,29.83,North,-999,0.0,0.0,83,0.00,,,-99.99,WeatherLink 5.7,2013-06-03 06:30:00,
2013-06-03 02:45:00,75.1,69.9,29.83,North,-999,0.0,0.0,84,0.00,,,-99.99,WeatherLink 5.7,2013-06-03 06:45:00,
2013-06-03 03:00:00,75.1,69.9,29.82,North,-999,0.0,0.0,84,0.00,,,-99.99,WeatherLink 5.7,2013-06-03 07:00:00,
2013-06-03 03:15:00,75.0,70.2,29.82,North,-999,0.0,0.0,85,0.00,,,-99.99,WeatherLink 5.7,2013-06-03 07:15:00,
2013-06-03 03:30:00,74.9,70.4,29.82,North,-999,0.0,0.0,86,0.00,,,-99.99,WeatherLink 5.7,2013-06-03 07:30:00,
2013-06-03 03:45:00,74.9,70.1,29.82,North,-999,0.0,0.0,85,0.00,,,-99.99,WeatherLink 5.7,2013-06-03 07:45:00,
2013-06-03 04:00:00,74.8,70.0,29.81,North,-999,0.0,0.0,85,0.00,,,-99.99,WeatherLink 5.7,2013-06-03 08:00:00,
2013-06-03 04:15:00,74.6,70.1,29.82,North,-999,0.0,0.0,86,0.00,,,-99.99,WeatherLink 5.7,2013-06-03 08:15:00,
2013-06-03 04:30:00,74.4,69.9,29.82,North,-999,0.0,0.0,86,0.00,,,-99.99,WeatherLink 5.7,2013-06-03 08:30:00,
2013-06-03 04:45:00,74.2,70.1,29.82,North,-999,0.0,0.0,87,0.00,,,-99.99,WeatherLink 5.7,2013-06-03 08:45:00,
2013-06-03 05:00:00,74.2,70.1,29.82,North,-999,0.0,0.0,87,0.00,,,-99.99,WeatherLink 5.7,2013-06-03 09:00:00,
2013-06-03 05:15:00,74.1,70.0,29.82,North,-999,0.0,0.0,87,0.00,,,-99.99,WeatherLink 5.7,2013-06-03 09:15:00,
2013-06-03 05:30:00,74.0,69.9,29.83,North,-999,0.0,0.0,87,0.00,,,-99.99,WeatherLink 5.7,2013-06-03 09:30:00,
2013-06-03 05:45:00,74.0,69.9,29.83,North,-999,0.0,0.0,87,0.00,,,-99.99,WeatherLink 5.7,2013-06-03 09:45:00,
2013-06-03 06:00:00,74.0,69.9,29.83,North,-999,0.0,0.0,87,0.00,,,-99.99,WeatherLink 5.7,2013-06-03 10:00:00,
2013-06-03 06:15:00,73.9,70.1,29.83,North,-999,0.0,0.0,88,0.00,,,-99.99,WeatherLink 5.7,2013-06-03 10:15:00,
2013-06-03 06:30:00,74.0,70.2,29.83,North,-999,0.0,0.0,88,0.00,,,-99.99,WeatherLink 5.7,2013-06-03 10:30:00,
2013-06-03 06:45:00,74.2,70.7,29.83,North,-999,0.0,0.0,89,0.00,,,-99.99,WeatherLink 5.7,2013-06-03 10:45:00,
2013-06-03 07:00:00,74.6,71.1,29.83,North,-999,0.0,0.0,89,0.00,,,-99.99,WeatherLink 5.7,2013-06-03 11:00:00,
2013-06-03 07:15:00,75.3,72.2,29.84,North,-999,0.0,0.0,90,0.00,,,-99.99,WeatherLink 5.7,2013-06-03 11:15:00,
2013-06-03 07:30:00,76.2,73.1,29.84,North,-999,0.0,0.0,90,0.00,,,-99.99,WeatherLink 5.7,2013-06-03 11:30:00,
2013-06-03 07:45:00,77.0,73.8,29.85,North,-999,0.0,0.0,90,0.00,,,-99.99,WeatherLink 5.7,2013-06-03 11:45:00,
2013-06-03 08:00:00,77.5,74.0,29.86,North,-999,0.0,0.0,89,0.00,,,-99.99,WeatherLink 5.7,2013-06-03 12:00:00,
2013-06-03 08:15:00,77.7,74.2,29.86,North,-999,0.0,0.0,89,0.00,,,-99.99,WeatherLink 5.7,2013-06-03 12:15:00,
2013-06-03 08:30:00,78.3,74.8,29.86,North,-999,0.0,0.0,89,0.00,,,-99.99,WeatherLink 5.7,2013-06-03 12:30:00,
2013-06-03 08:45:00,78.6,74.7,29.86,North,-999,0.0,0.0,88,0.00,,,-99.99,WeatherLink 5.7,2013-06-03 12:45:00,
2013-06-03 09:00:00,78.6,74.4,29.87,North,0,0.0,6.0,87,0.00,,,-99.99,WeatherLink 5.7,2013-06-03 13:00:00,
2013-06-03 09:15:00,78.7,74.5,29.86,North,0,0.0,5.0,87,0.00,,,-99.99,WeatherLink 5.7,2013-06-03 13:15:00,
2013-06-03 09:30:00,79.6,75.0,29.86,North,0,1.0,7.0,86,0.00,,,-99.99,WeatherLink 5.7,2013-06-03 13:30:00,
2013-06-03 09:45:00,81.1,75.8,29.86,North,0,0.0,3.0,84,0.00,,,-99.99,WeatherLink 5.7,2013-06-03 13:45:00,
2013-06-03 10:00:00,82.2,76.2,29.86,North,0,0.0,4.0,82,0.00,,,-99.99,WeatherLink 5.7,2013-06-03 14:00:00,
2013-06-03 10:15:00,82.9,76.5,29.87,North,0,1.0,9.0,81,0.00,,,-99.99,WeatherLink 5.7,2013-06-03 14:15:00,
2013-06-03 10:30:00,83.5,76.3,29.87,North,0,1.0,9.0,79,0.00,,,-99.99,WeatherLink 5.7,2013-06-03 14:30:00,
2013-06-03 10:45:00,85.2,76.4,29.86,North,0,0.0,9.0,75,0.00,,,-99.99,WeatherLink 5.7,2013-06-03 14:45:00,
2013-06-03 11:00:00,86.1,76.4,29.86,North,0,0.0,7.0,73,0.00,,,-99.99,WeatherLink 5.7,2013-06-03 15:00:00,
2013-06-03 11:15:00,86.1,76.0,29.88,North,0,0.0,6.0,72,0.00,,,-99.99,WeatherLink 5.7,2013-06-03 15:15:00,
2013-06-03 11:30:00,85.2,75.6,29.87,North,0,0.0,7.0,73,0.00,,,-99.99,WeatherLink 5.7,2013-06-03 15:30:00,
2013-06-03 11:45:00,85.2,75.6,29.87,North,-999,0.0,0.0,73,0.00,,,-99.99,WeatherLink 5.7,2013-06-03 15:45:00,
2013-06-03 12:00:00,85.8,75.3,29.87,North,0,0.0,6.0,71,0.00,,,-99.99,WeatherLink 5.7,2013-06-03 16:00:00,
2013-06-03 12:15:00,86.6,75.2,29.87,North,0,0.0,5.0,69,0.00,,,-99.99,WeatherLink 5.7,2013-06-03 16:15:00,
2013-06-03 12:30:00,87.5,75.2,29.86,North,-999,0.0,0.0,67,0.00,,,-99.99,WeatherLink 5.7,2013-06-03 16:30:00,
2013-06-03 12:45:00,87.8,75.0,29.86,North,-999,0.0,0.0,66,0.00,,,-99.99,WeatherLink 5.7,2013-06-03 16:45:00,
2013-06-03 13:00:00,88.0,74.3,29.85,North,-999,0.0,0.0,64,0.00,,,-99.99,WeatherLink 5.7,2013-06-03 17:00:00,
2013-06-03 13:15:00,88.3,74.6,29.85,North,-999,0.0,0.0,64,0.00,,,-99.99,WeatherLink 5.7,2013-06-03 17:15:00,
2013-06-03 13:30:00,88.7,75.0,29.85,North,0,0.0,6.0,64,0.00,,,-99.99,WeatherLink 5.7,2013-06-03 17:30:00,
2013-06-03 13:45:00,89.7,75.4,29.85,North,0,0.0,2.0,63,0.00,,,-99.99,WeatherLink 5.7,2013-06-03 17:45:00,
2013-06-03 14:00:00,89.8,74.1,29.85,North,0,0.0,4.0,60,0.00,,,-99.99,WeatherLink 5.7,2013-06-03 18:00:00,
2013-06-03 14:15:00,89.4,74.2,29.85,North,0,0.0,11.0,61,0.00,,,-99.99,WeatherLink 5.7,2013-06-03 18:15:00,
2013-06-03 14:30:00,87.9,73.3,29.86,North,0,0.0,12.0,62,0.00,,,-99.99,WeatherLink 5.7,2013-06-03 18:30:00,
2013-06-03 14:45:00,85.6,73.4,29.85,North,0,0.0,9.0,67,0.05,,,-99.99,WeatherLink 5.7,2013-06-03 18:45:00,
2013-06-03 15:00:00,84.0,74.0,29.84,North,0,0.0,10.0,72,0.05,,,-99.99,WeatherLink 5.7,2013-06-03 19:00:00,
2013-06-03 15:15:00,83.1,73.9,29.84,North,0,0.0,3.0,74,0.05,,,-99.99,WeatherLink 5.7,2013-06-03 19:15:00,
2013-06-03 15:30:00,83.0,74.3,29.85,North,0,0.0,5.0,75,0.05,,,-99.99,WeatherLink 5.7,2013-06-03 19:30:00,
2013-06-03 15:45:00,82.9,74.6,29.84,North,0,0.0,5.0,76,0.00,,,-99.99,WeatherLink 5.7,2013-06-03 19:45:00,
2013-06-03 16:00:00,82.9,74.6,29.83,North,0,0.0,4.0,76,0.00,,,-99.99,WeatherLink 5.7,2013-06-03 20:00:00,
2013-06-03 16:15:00,83.5,73.9,29.83,North,-999,0.0,0.0,73,0.00,,,-99.99,WeatherLink 5.7,2013-06-03 20:15:00,
2013-06-03 16:30:00,83.8,74.2,29.83,North,0,0.0,3.0,73,0.00,,,-99.99,WeatherLink 5.7,2013-06-03 20:30:00,
2013-06-03 16:45:00,83.9,73.9,29.83,North,0,0.0,6.0,72,0.00,,,-99.99,WeatherLink 5.7,2013-06-03 20:45:00,
2013-06-03 17:00:00,84.0,74.0,29.83,North,0,0.0,12.0,72,0.00,,,-99.99,WeatherLink 5.7,2013-06-03 21:00:00,
2013-06-03 17:15:00,83.9,73.9,29.83,North,0,0.0,7.0,72,0.00,,,-99.99,WeatherLink 5.7,2013-06-03 21:15:00,
2013-06-03 17:30:00,83.6,73.6,29.83,North,0,0.0,4.0,72,0.00,,,-99.99,WeatherLink 5.7,2013-06-03 21:30:00,
2013-06-03 17:45:00,83.3,73.7,29.83,North,0,0.0,5.0,73,0.00,,,-99.99,WeatherLink 5.7,2013-06-03 21:45:00,
2013-06-03 18:00:00,83.0,73.4,29.83,North,0,0.0,7.0,73,0.00,,,-99.99,WeatherLink 5.7,2013-06-03 22:00:00,
2013-06-03 18:15:00,82.5,73.0,29.84,North,0,0.0,4.0,73,0.00,,,-99.99,WeatherLink 5.7,2013-06-03 22:15:00,
2013-06-03 18:30:00,82.1,72.2,29.85,North,0,0.0,9.0,72,0.00,,,-99.99,WeatherLink 5.7,2013-06-03 22:30:00,
2013-06-03 18:45:00,82.0,72.5,29.85,North,-999,0.0,0.0,73,0.00,,,-99.99,WeatherLink 5.7,2013-06-03 22:45:00,
2013-06-03 19:00:00,81.9,72.4,29.85,North,0,0.0,7.0,73,0.00,,,-99.99,WeatherLink 5.7,2013-06-03 23:00:00,
2013-06-03 19:15:00,81.6,72.5,29.85,North,0,0.0,6.0,74,0.00,,,-99.99,WeatherLink 5.7,2013-06-03 23:15:00,
2013-06-03 19:30:00,81.0,71.9,29.86,North,0,0.0,7.0,74,0.00,,,-99.99,WeatherLink 5.7,2013-06-03 23:30:00,
2013-06-03 19:45:00,80.4,71.7,29.86,North,0,0.0,10.0,75,0.00,,,-99.99,WeatherLink 5.7,2013-06-03 23:45:00,
2013-06-03 20:00:00,80.0,71.4,29.85,North,0,0.0,7.0,75,0.00,,,-99.99,WeatherLink 5.7,2013-06-04 00:00:00,
2013-06-03 20:15:00,79.6,71.4,29.85,North,0,0.0,6.0,76,0.00,,,-99.99,WeatherLink 5.7,2013-06-04 00:15:00,
2013-06-03 20:30:00,79.1,71.3,29.85,North,-999,0.0,0.0,77,0.00,,,-99.99,WeatherLink 5.7,2013-06-04 00:30:00,
2013-06-03 20:45:00,78.7,70.9,29.85,North,0,0.0,6.0,77,0.00,,,-99.99,WeatherLink 5.7,2013-06-04 00:45:00,
2013-06-03 21:00:00,78.5,71.1,29.86,North,-999,0.0,0.0,78,0.00,,,-99.99,WeatherLink 5.7,2013-06-04 01:00:00,
2013-06-03 21:15:00,78.3,70.9,29.86,North,0,0.0,6.0,78,0.00,,,-99.99,WeatherLink 5.7,2013-06-04 01:15:00,
2013-06-03 21:30:00,78.2,71.2,29.88,North,-999,0.0,0.0,79,0.00,,,-99.99,WeatherLink 5.7,2013-06-04 01:30:00,
2013-06-03 21:45:00,78.1,71.1,29.89,North,-999,0.0,0.0,79,0.00,,,-99.99,WeatherLink 5.7,2013-06-04 01:45:00,
2013-06-03 22:00:00,77.9,70.9,29.89,North,-999,0.0,0.0,79,0.00,,,-99.99,WeatherLink 5.7,2013-06-04 02:00:00,
2013-06-03 22:15:00,77.9,71.2,29.90,North,-999,0.0,0.0,80,0.00,,,-99.99,WeatherLink 5.7,2013-06-04 02:15:00,
2013-06-03 22:30:00,77.9,71.2,29.90,North,-999,0.0,0.0,80,0.00,,,-99.99,WeatherLink 5.7,2013-06-04 02:30:00,
2013-06-03 22:45:00,78.0,71.3,29.91,North,0,0.0,1.0,80,0.00,,,-99.99,WeatherLink 5.7,2013-06-04 02:45:00,
2013-06-03 23:00:00,78.1,71.4,29.91,North,-999,0.0,0.0,80,0.00,,,-99.99,WeatherLink 5.7,2013-06-04 03:00:00,
2013-06-03 23:15:00,78.1,71.8,29.91,North,-999,0.0,0.0,81,0.00,,,-99.99,WeatherLink 5.7,2013-06-04 03:15:00,
2013-06-03 23:30:00,78.1,71.8,29.91,North,-999,0.0,0.0,81,0.00,,,-99.99,WeatherLink 5.7,2013-06-04 03:30:00,
2013-06-03 23:45:00,77.9,71.2,29.91,North,-999,0.0,0.0,80,0.00,,,-99.99,WeatherLink 5.7,2013-06-04 03:45:00,